Time;durP1;ratioP1;P1;durP2;ratioP2;P2;SDS_P1;SDS_P2;PMS_P1;PMS_P2;Temp;Humidity;BMP_temperature;BMP_pressure;BME280_temperature;BME280_humidity;BME280_pressure;Samples;Min_cycle;Max_cycle;Signal;HPM_P1;HPM_P2
2024/01/20 00:01:35;;;;;;;5.00;3.33;;;;;;;;;;6227277;28;24427;-79
2024/01/20 00:04:38;;;;;;;6.10;3.08;;;;;;;;;;6227362;28;24432;-79
2024/01/20 00:07:40;;;;;;;5.33;3.20;;;;;;;;;;6227067;28;24423;-74
2024/01/20 00:10:42;;;;;;;28.58;13.50;;;;;;;;;;6227825;28;24424;-75
2024/01/20 00:13:44;;;;;;;104.25;39.83;;;;;;;;;;6229218;28;25093;-78
2024/01/20 00:16:47;;;;;;;36.30;16.40;;;;;;;;;;6230554;28;24424;-74
2024/01/20 00:19:49;;;;;;;21.83;10.70;;;;;;;;;;6228144;28;24420;-74
2024/01/20 00:22:52;;;;;;;19.15;8.98;;;;;;;;;;6228850;28;24651;-74
2024/01/20 00:25:54;;;;;;;195.88;74.72;;;;;;;;;;6228997;28;24421;-74
2024/01/20 00:28:56;;;;;;;78.18;30.17;;;;;;;;;;6230291;28;24824;-73
2024/01/20 00:31:59;;;;;;;39.92;17.27;;;;;;;;;;6227553;28;24415;-75
2024/01/20 00:35:03;;;;;;;13.25;6.35;;;;;;;;;;6223932;28;24424;-74
2024/01/20 00:38:05;;;;;;;9.20;4.50;;;;;;;;;;6227090;28;24687;-74
2024/01/20 00:41:07;;;;;;;7.65;3.70;;;;;;;;;;6224777;28;24431;-73
2024/01/20 00:44:09;;;;;;;6.15;3.38;;;;;;;;;;6233528;28;24642;-74
2024/01/20 00:47:12;;;;;;;5.20;3.00;;;;;;;;;;6227490;28;24840;-74
2024/01/20 00:50:13;;;;;;;6.90;3.10;;;;;;;;;;6228564;28;24423;-73
2024/01/20 00:53:15;;;;;;;5.55;3.33;;;;;;;;;;6227928;28;24891;-74
2024/01/20 00:56:17;;;;;;;6.60;3.75;;;;;;;;;;6228049;28;24832;-73
2024/01/20 00:59:19;;;;;;;4.45;3.00;;;;;;;;;;6227863;28;24839;-73
2024/01/20 01:02:22;;;;;;;5.35;3.20;;;;;;;;;;6227459;28;24424;-74
2024/01/20 01:05:24;;;;;;;4.93;3.03;;;;;;;;;;6226550;28;24427;-74
2024/01/20 01:08:26;;;;;;;6.40;3.20;;;;;;;;;;6225751;28;24420;-74
2024/01/20 01:11:28;;;;;;;4.45;3.10;;;;;;;;;;6223982;28;24469;-73
2024/01/20 01:14:30;;;;;;;5.30;2.95;;;;;;;;;;6226806;28;24424;-74
2024/01/20 01:17:33;;;;;;;6.43;3.22;;;;;;;;;;6227820;28;24539;-73
2024/01/20 01:20:35;;;;;;;4.80;3.20;;;;;;;;;;6225175;28;24423;-73
2024/01/20 01:23:37;;;;;;;5.75;3.35;;;;;;;;;;6226556;28;24408;-74
2024/01/20 01:26:39;;;;;;;6.90;3.45;;;;;;;;;;6226974;28;24914;-74
2024/01/20 01:29:40;;;;;;;6.30;3.23;;;;;;;;;;6226804;28;24416;-73
2024/01/20 01:32:44;;;;;;;5.95;3.25;;;;;;;;;;6224255;28;24872;-73
2024/01/20 01:35:46;;;;;;;5.95;3.03;;;;;;;;;;6226520;28;24490;-74
2024/01/20 01:38:48;;;;;;;7.47;3.40;;;;;;;;;;6227319;28;24479;-74
2024/01/20 01:41:50;;;;;;;4.43;3.05;;;;;;;;;;6226292;28;24860;-74
2024/01/20 01:44:52;;;;;;;4.97;3.00;;;;;;;;;;6224733;28;24428;-74
2024/01/20 01:47:56;;;;;;;5.65;3.53;;;;;;;;;;6227240;28;24439;-74
2024/01/20 01:50:58;;;;;;;6.10;3.22;;;;;;;;;;6226478;28;24424;-75
2024/01/20 01:54:02;;;;;;;5.03;3.20;;;;;;;;;;6226621;28;24557;-74
2024/01/20 01:57:04;;;;;;;5.53;3.15;;;;;;;;;;6222121;28;24471;-74
2024/01/20 02:00:07;;;;;;;5.80;3.17;;;;;;;;;;6224540;28;24408;-75
2024/01/20 02:03:10;;;;;;;5.32;3.47;;;;;;;;;;6225128;28;24423;-74
2024/01/20 02:06:12;;;;;;;5.15;3.00;;;;;;;;;;6226226;28;24440;-74
2024/01/20 02:09:14;;;;;;;5.78;3.05;;;;;;;;;;6226833;28;24436;-73
2024/01/20 02:12:16;;;;;;;5.40;2.80;;;;;;;;;;6203576;28;24626;-74
2024/01/20 02:15:18;;;;;;;4.63;3.00;;;;;;;;;;6225470;28;24825;-74
2024/01/20 02:18:23;;;;;;;5.05;3.17;;;;;;;;;;6224407;28;24467;-73
2024/01/20 02:21:26;;;;;;;5.07;2.80;;;;;;;;;;6224978;28;24494;-74
2024/01/20 02:24:29;;;;;;;6.70;3.20;;;;;;;;;;6226579;28;24504;-73
2024/01/20 02:27:31;;;;;;;6.15;3.30;;;;;;;;;;6225417;28;24487;-74
2024/01/20 02:30:33;;;;;;;5.80;3.17;;;;;;;;;;6225552;28;24428;-74
2024/01/20 02:33:35;;;;;;;6.07;3.40;;;;;;;;;;6224812;28;24436;-74
2024/01/20 02:36:37;;;;;;;6.63;3.38;;;;;;;;;;6225967;28;24444;-74
2024/01/20 02:39:40;;;;;;;7.95;3.35;;;;;;;;;;6225494;28;24829;-74
2024/01/20 02:42:42;;;;;;;7.45;3.85;;;;;;;;;;6226317;28;24432;-74
2024/01/20 02:45:45;;;;;;;7.55;4.28;;;;;;;;;;6209053;28;24433;-74
2024/01/20 02:48:47;;;;;;;6.75;4.07;;;;;;;;;;6224555;28;24475;-74
2024/01/20 02:51:49;;;;;;;8.27;4.30;;;;;;;;;;6224129;28;24427;-74
2024/01/20 02:54:53;;;;;;;7.68;4.13;;;;;;;;;;6225706;28;24479;-73
2024/01/20 02:57:55;;;;;;;6.40;3.90;;;;;;;;;;6224699;28;24805;-75
2024/01/20 03:00:58;;;;;;;9.70;4.85;;;;;;;;;;6225522;28;24433;-74
2024/01/20 03:04:00;;;;;;;8.32;4.53;;;;;;;;;;6225185;28;24686;-74
2024/01/20 03:07:02;;;;;;;8.55;4.88;;;;;;;;;;6223694;28;25476;-73
2024/01/20 03:10:07;;;;;;;8.68;5.20;;;;;;;;;;6211062;28;24841;-74
2024/01/20 03:13:09;;;;;;;10.63;5.35;;;;;;;;;;6229080;28;24484;-73
2024/01/20 03:16:11;;;;;;;11.37;5.40;;;;;;;;;;6230222;28;24450;-74
2024/01/20 03:19:13;;;;;;;10.40;5.10;;;;;;;;;;6230292;28;24432;-74
2024/01/20 03:22:15;;;;;;;8.30;5.30;;;;;;;;;;6228371;28;24444;-74
2024/01/20 03:25:18;;;;;;;10.75;5.63;;;;;;;;;;6228952;28;24400;-74
2024/01/20 03:28:20;;;;;;;9.60;5.43;;;;;;;;;;6229778;28;24821;-75
2024/01/20 03:31:22;;;;;;;8.65;5.40;;;;;;;;;;6228193;28;24409;-74
2024/01/20 03:34:23;;;;;;;8.52;5.20;;;;;;;;;;6230082;28;24420;-74
2024/01/20 03:37:25;;;;;;;7.65;4.93;;;;;;;;;;6229814;28;24488;-74
2024/01/20 03:40:29;;;;;;;9.07;5.03;;;;;;;;;;6228780;28;24409;-74
2024/01/20 03:43:30;;;;;;;10.05;5.65;;;;;;;;;;6230319;28;24431;-74
2024/01/20 03:46:32;;;;;;;8.07;5.10;;;;;;;;;;6227777;28;24708;-74
2024/01/20 03:49:34;;;;;;;9.55;5.20;;;;;;;;;;6227453;28;24491;-74
2024/01/20 03:52:36;;;;;;;9.10;5.22;;;;;;;;;;6229567;28;24471;-74
2024/01/20 03:55:39;;;;;;;11.48;5.45;;;;;;;;;;6229834;28;24421;-74
2024/01/20 03:58:41;;;;;;;10.10;5.13;;;;;;;;;;6227896;28;24447;-74
2024/01/20 04:01:43;;;;;;;11.63;5.30;;;;;;;;;;6229161;28;24670;-74
2024/01/20 04:04:45;;;;;;;8.73;5.30;;;;;;;;;;6227963;28;24446;-74
2024/01/20 04:07:48;;;;;;;9.55;5.47;;;;;;;;;;6229660;28;24454;-74
2024/01/20 04:10:51;;;;;;;8.07;4.80;;;;;;;;;;6229225;28;24421;-74
2024/01/20 04:13:53;;;;;;;8.15;5.05;;;;;;;;;;6227888;28;24611;-74
2024/01/20 04:16:56;;;;;;;8.95;5.75;;;;;;;;;;6229084;28;24427;-72
2024/01/20 04:19:58;;;;;;;9.20;5.30;;;;;;;;;;6226799;28;25108;-74
2024/01/20 04:23:00;;;;;;;8.75;4.97;;;;;;;;;;6227367;28;24428;-74
2024/01/20 04:26:03;;;;;;;9.68;5.68;;;;;;;;;;6228054;28;25060;-74
2024/01/20 04:29:05;;;;;;;10.38;5.80;;;;;;;;;;6227644;28;24413;-74
2024/01/20 04:32:07;;;;;;;7.18;5.03;;;;;;;;;;6228023;28;24827;-74
2024/01/20 04:35:09;;;;;;;8.77;5.25;;;;;;;;;;6226927;28;24415;-74
2024/01/20 04:38:11;;;;;;;11.23;5.83;;;;;;;;;;6226604;28;24441;-74
2024/01/20 04:41:14;;;;;;;9.60;5.30;;;;;;;;;;6226864;28;24809;-74
2024/01/20 04:44:16;;;;;;;8.32;5.18;;;;;;;;;;6226286;28;24499;-74
2024/01/20 04:47:18;;;;;;;12.05;5.18;;;;;;;;;;6228839;28;24431;-74
2024/01/20 04:50:20;;;;;;;7.63;4.75;;;;;;;;;;6226338;28;24419;-74
2024/01/20 04:53:22;;;;;;;8.57;5.40;;;;;;;;;;6226584;28;24441;-74
2024/01/20 04:56:25;;;;;;;8.00;5.10;;;;;;;;;;6227421;28;25164;-74
2024/01/20 04:59:27;;;;;;;9.95;4.97;;;;;;;;;;6226387;28;24490;-74
2024/01/20 05:02:28;;;;;;;8.10;4.60;;;;;;;;;;6225346;28;24443;-74
2024/01/20 05:05:30;;;;;;;7.57;4.60;;;;;;;;;;6227147;28;24607;-74
2024/01/20 05:08:32;;;;;;;7.38;4.80;;;;;;;;;;6226870;28;24424;-74
2024/01/20 05:11:35;;;;;;;7.22;4.80;;;;;;;;;;6226823;28;24424;-74
2024/01/20 05:14:37;;;;;;;7.88;4.95;;;;;;;;;;6226515;28;24448;-74
2024/01/20 05:17:39;;;;;;;7.22;4.57;;;;;;;;;;6225797;28;24883;-74
2024/01/20 05:20:41;;;;;;;9.37;4.93;;;;;;;;;;6227741;28;24469;-74
2024/01/20 05:23:42;;;;;;;7.78;4.60;;;;;;;;;;6225402;28;24420;-74
2024/01/20 05:26:45;;;;;;;8.25;4.82;;;;;;;;;;6226564;28;24428;-74
2024/01/20 05:29:47;;;;;;;7.85;4.68;;;;;;;;;;6209470;28;24427;-74
2024/01/20 05:32:49;;;;;;;7.03;4.90;;;;;;;;;;6226181;28;24423;-74
2024/01/20 05:35:51;;;;;;;6.93;4.68;;;;;;;;;;6225971;28;24497;-74
2024/01/20 05:38:53;;;;;;;8.60;5.07;;;;;;;;;;6209239;28;24417;-74
2024/01/20 05:41:56;;;;;;;8.32;5.05;;;;;;;;;;6226739;28;24417;-74
2024/01/20 05:44:58;;;;;;;9.20;4.88;;;;;;;;;;6227205;28;24433;-74
2024/01/20 05:48:00;;;;;;;8.82;5.22;;;;;;;;;;6227234;28;24888;-73
2024/01/20 05:51:02;;;;;;;7.50;4.80;;;;;;;;;;6225142;28;24809;-74
2024/01/20 05:54:04;;;;;;;6.97;4.72;;;;;;;;;;6224599;28;24439;-74
2024/01/20 05:57:08;;;;;;;6.57;4.63;;;;;;;;;;6226694;28;24439;-74
2024/01/20 06:00:10;;;;;;;7.55;5.00;;;;;;;;;;6226478;28;24427;-74
2024/01/20 06:03:12;;;;;;;8.40;4.80;;;;;;;;;;6226931;28;24468;-73
2024/01/20 06:06:14;;;;;;;7.95;4.70;;;;;;;;;;6226185;28;24424;-73
2024/01/20 06:09:16;;;;;;;7.63;4.80;;;;;;;;;;6224035;28;24560;-73
2024/01/20 06:12:19;;;;;;;8.02;4.80;;;;;;;;;;6226035;28;24424;-74
2024/01/20 06:15:21;;;;;;;7.43;4.57;;;;;;;;;;6226407;28;24458;-74
2024/01/20 06:18:23;;;;;;;7.13;4.47;;;;;;;;;;6226925;28;24428;-74
2024/01/20 06:21:25;;;;;;;8.25;4.47;;;;;;;;;;6225338;28;24475;-75
2024/01/20 06:24:26;;;;;;;6.27;4.10;;;;;;;;;;6223143;28;24436;-73
2024/01/20 06:27:30;;;;;;;7.97;4.63;;;;;;;;;;6225222;28;24439;-74
2024/01/20 06:30:34;;;;;;;7.50;4.22;;;;;;;;;;6217109;28;24432;-72
2024/01/20 06:33:36;;;;;;;5.63;3.80;;;;;;;;;;6225989;28;24531;-74
2024/01/20 06:36:38;;;;;;;7.13;4.18;;;;;;;;;;6226417;28;24435;-74
2024/01/20 06:39:41;;;;;;;6.80;4.22;;;;;;;;;;6224654;28;24421;-75
2024/01/20 06:42:44;;;;;;;5.18;3.60;;;;;;;;;;6224214;28;24436;-73
2024/01/20 06:45:46;;;;;;;6.10;3.70;;;;;;;;;;6220419;28;24443;-74
2024/01/20 06:48:48;;;;;;;7.53;3.72;;;;;;;;;;6231597;28;24817;-73
2024/01/20 06:51:50;;;;;;;5.50;3.80;;;;;;;;;;6228952;28;24492;-74
2024/01/20 06:54:52;;;;;;;5.57;3.63;;;;;;;;;;6228318;28;24436;-74
2024/01/20 06:57:55;;;;;;;7.80;3.67;;;;;;;;;;6229050;28;24428;-74
2024/01/20 07:00:57;;;;;;;6.40;3.50;;;;;;;;;;6229165;28;24412;-74
2024/01/20 07:03:59;;;;;;;6.68;3.78;;;;;;;;;;6229797;28;24428;-74
2024/01/20 07:07:01;;;;;;;6.63;3.40;;;;;;;;;;6228575;28;24436;-75
2024/01/20 07:10:05;;;;;;;5.65;3.35;;;;;;;;;;6230562;28;24460;-75
2024/01/20 07:13:09;;;;;;;5.50;2.80;;;;;;;;;;6230176;28;24482;-75
2024/01/20 07:16:16;;;;;;;5.20;3.10;;;;;;;;;;6230962;28;24443;-77
2024/01/20 07:19:18;;;;;;;4.50;2.80;;;;;;;;;;6225587;28;24493;-74
2024/01/20 07:22:20;;;;;;;5.25;2.72;;;;;;;;;;6228369;28;24526;-75
2024/01/20 07:25:24;;;;;;;4.67;2.60;;;;;;;;;;6228695;28;24415;-75
2024/01/20 07:28:29;;;;;;;4.57;2.50;;;;;;;;;;6227663;28;24488;-74
2024/01/20 07:31:31;;;;;;;5.18;2.60;;;;;;;;;;6229768;28;25341;-74
2024/01/20 07:34:32;;;;;;;4.32;2.47;;;;;;;;;;6226062;28;24428;-74
2024/01/20 07:37:36;;;;;;;3.50;2.20;;;;;;;;;;6228649;28;24428;-75
2024/01/20 07:40:38;;;;;;;2.97;2.30;;;;;;;;;;6225868;28;24474;-75
2024/01/20 07:43:41;;;;;;;3.13;2.00;;;;;;;;;;6227973;28;24855;-74
2024/01/20 07:46:43;;;;;;;4.22;2.20;;;;;;;;;;6228802;28;25134;-75
2024/01/20 07:49:45;;;;;;;4.50;2.17;;;;;;;;;;6227216;28;24532;-75
2024/01/20 07:52:47;;;;;;;4.03;2.10;;;;;;;;;;6229229;28;24434;-74
2024/01/20 07:55:49;;;;;;;3.97;2.13;;;;;;;;;;6227375;28;24484;-74
2024/01/20 07:58:52;;;;;;;5.30;2.35;;;;;;;;;;6227797;28;24415;-74
2024/01/20 08:01:54;;;;;;;5.83;2.40;;;;;;;;;;6225453;28;24931;-74
2024/01/20 08:04:56;;;;;;;5.15;2.30;;;;;;;;;;6227718;28;24875;-75
2024/01/20 08:07:58;;;;;;;4.65;2.40;;;;;;;;;;6226921;28;24463;-74
2024/01/20 08:11:00;;;;;;;5.23;2.77;;;;;;;;;;6228074;28;24435;-74
2024/01/20 08:14:03;;;;;;;4.18;2.65;;;;;;;;;;6226940;28;24654;-74
2024/01/20 08:17:05;;;;;;;5.03;2.83;;;;;;;;;;6227630;28;24428;-74
2024/01/20 08:20:08;;;;;;;4.50;2.70;;;;;;;;;;6228444;28;24424;-74
2024/01/20 08:23:10;;;;;;;4.47;2.97;;;;;;;;;;6227090;28;24626;-74
2024/01/20 08:26:12;;;;;;;5.18;2.65;;;;;;;;;;6228430;28;24420;-75
2024/01/20 08:29:17;;;;;;;3.95;2.47;;;;;;;;;;6226838;28;24434;-75
2024/01/20 08:32:18;;;;;;;3.80;2.50;;;;;;;;;;6226628;28;24532;-75
2024/01/20 08:35:20;;;;;;;5.05;2.40;;;;;;;;;;6228073;28;24821;-74
2024/01/20 08:38:22;;;;;;;3.80;2.30;;;;;;;;;;6224911;28;24426;-74
2024/01/20 08:41:24;;;;;;;3.65;2.10;;;;;;;;;;6231558;28;24613;-75
2024/01/20 08:44:27;;;;;;;145.23;16.40;;;;;;;;;;6226800;28;24459;-77
2024/01/20 08:47:29;;;;;;;95.10;11.63;;;;;;;;;;6228279;28;24462;-73
2024/01/20 08:50:31;;;;;;;13.68;3.92;;;;;;;;;;6227746;28;24424;-75
2024/01/20 08:53:34;;;;;;;5.33;2.53;;;;;;;;;;6227720;28;24508;-73
2024/01/20 08:56:36;;;;;;;5.25;2.05;;;;;;;;;;6227904;28;25066;-74
2024/01/20 08:59:39;;;;;;;4.05;2.42;;;;;;;;;;6226608;28;24432;-74
2024/01/20 09:02:41;;;;;;;3.20;2.10;;;;;;;;;;6225433;28;24650;-73
2024/01/20 09:05:43;;;;;;;4.13;2.03;;;;;;;;;;6225492;28;24852;-74
2024/01/20 09:08:47;;;;;;;3.10;1.80;;;;;;;;;;6218803;28;24436;-74
2024/01/20 09:11:49;;;;;;;4.20;2.20;;;;;;;;;;6225174;28;24885;-74
2024/01/20 09:14:52;;;;;;;3.83;2.00;;;;;;;;;;6227132;28;24460;-74
2024/01/20 09:17:54;;;;;;;3.53;2.13;;;;;;;;;;6227643;28;24585;-74
2024/01/20 09:20:56;;;;;;;4.85;2.30;;;;;;;;;;6227296;28;24417;-73
2024/01/20 09:23:58;;;;;;;3.95;2.17;;;;;;;;;;6225345;28;24440;-74
2024/01/20 09:27:00;;;;;;;5.50;2.40;;;;;;;;;;6226032;28;24486;-74
2024/01/20 09:30:06;;;;;;;3.53;2.17;;;;;;;;;;6226762;28;24466;-73
2024/01/20 09:33:08;;;;;;;4.45;2.25;;;;;;;;;;6225382;28;24440;-74
2024/01/20 09:36:09;;;;;;;4.35;2.22;;;;;;;;;;6227149;28;24439;-74
2024/01/20 09:39:12;;;;;;;4.05;2.10;;;;;;;;;;6226953;28;24428;-74
2024/01/20 09:42:15;;;;;;;2.95;2.00;;;;;;;;;;6226343;28;25215;-74
2024/01/20 09:45:18;;;;;;;3.97;2.23;;;;;;;;;;6224578;28;24522;-74
2024/01/20 09:48:20;;;;;;;5.00;2.20;;;;;;;;;;6224956;28;24845;-74
2024/01/20 09:51:24;;;;;;;3.00;2.03;;;;;;;;;;6226035;28;24508;-74
2024/01/20 09:54:27;;;;;;;2.67;1.85;;;;;;;;;;6225041;28;24654;-74
2024/01/20 09:57:30;;;;;;;5.65;2.28;;;;;;;;;;6224593;28;24434;-74
2024/01/20 10:00:33;;;;;;;3.70;2.10;;;;;;;;;;6209978;28;24455;-75
2024/01/20 10:03:35;;;;;;;6.40;2.00;;;;;;;;;;6225447;28;24431;-76
2024/01/20 10:06:39;;;;;;;3.30;2.00;;;;;;;;;;6224693;28;24439;-74
2024/01/20 10:09:41;;;;;;;3.15;2.00;;;;;;;;;;6226518;28;24665;-74
2024/01/20 10:12:42;;;;;;;2.30;1.50;;;;;;;;;;6225202;28;24871;-75
2024/01/20 10:15:46;;;;;;;3.33;1.80;;;;;;;;;;6226093;28;24420;-73
2024/01/20 10:18:48;;;;;;;2.60;1.60;;;;;;;;;;6227747;28;24420;-74
2024/01/20 10:21:50;;;;;;;3.90;1.90;;;;;;;;;;6230660;28;24425;-73
2024/01/20 10:24:56;;;;;;;4.82;2.15;;;;;;;;;;6230314;28;24650;-74
2024/01/20 10:27:58;;;;;;;2.78;1.90;;;;;;;;;;6230142;28;24511;-73
2024/01/20 10:31:06;;;;;;;3.60;1.90;;;;;;;;;;6229500;28;24690;-74
2024/01/20 10:34:08;;;;;;;2.83;1.80;;;;;;;;;;6229916;28;24527;-73
2024/01/20 10:37:12;;;;;;;2.78;1.63;;;;;;;;;;6231067;28;24436;-74
2024/01/20 10:40:14;;;;;;;3.37;1.60;;;;;;;;;;6231194;28;24428;-73
2024/01/20 10:43:18;;;;;;;2.43;1.70;;;;;;;;;;6231109;28;24432;-74
2024/01/20 10:46:24;;;;;;;2.88;1.65;;;;;;;;;;6230059;28;24489;-74
2024/01/20 10:49:26;;;;;;;2.35;1.40;;;;;;;;;;6230482;28;24851;-74
2024/01/20 10:52:27;;;;;;;2.40;1.30;;;;;;;;;;6227895;28;24429;-74
2024/01/20 10:55:29;;;;;;;2.53;1.40;;;;;;;;;;6229510;28;24463;-74
2024/01/20 10:58:34;;;;;;;2.10;1.33;;;;;;;;;;6231384;28;24420;-74
2024/01/20 11:01:37;;;;;;;2.47;1.23;;;;;;;;;;6228878;28;24482;-73
2024/01/20 11:04:43;;;;;;;2.28;1.30;;;;;;;;;;6229743;28;24431;-75
2024/01/20 11:07:55;;;;;;;3.42;1.52;;;;;;;;;;6229354;28;24459;-74
2024/01/20 11:10:57;;;;;;;4.18;1.60;;;;;;;;;;6230390;28;24421;-74
2024/01/20 11:14:00;;;;;;;2.23;1.20;;;;;;;;;;6228467;28;24526;-74
2024/01/20 11:17:14;;;;;;;1.98;1.27;;;;;;;;;;6227054;28;24423;-73
2024/01/20 11:20:16;;;;;;;3.08;1.45;;;;;;;;;;6236582;28;24545;-74
2024/01/20 11:23:21;;;;;;;2.35;1.40;;;;;;;;;;6224191;28;20786;-75
2024/01/20 11:26:32;;;;;;;3.42;1.40;;;;;;;;;;6223863;28;24502;-74
2024/01/20 11:29:34;;;;;;;3.50;1.73;;;;;;;;;;6229090;28;24443;-74
2024/01/20 11:32:38;;;;;;;3.60;1.50;;;;;;;;;;6228136;28;24450;-74
2024/01/20 11:35:39;;;;;;;2.85;1.40;;;;;;;;;;6227771;28;24876;-75
2024/01/20 11:38:43;;;;;;;3.67;1.47;;;;;;;;;;6226975;28;24876;-74
2024/01/20 11:41:46;;;;;;;2.67;1.40;;;;;;;;;;6229019;28;24424;-74
2024/01/20 11:44:47;;;;;;;2.13;1.23;;;;;;;;;;6227258;28;24882;-74
2024/01/20 11:47:51;;;;;;;2.93;1.30;;;;;;;;;;6230494;28;24424;-75
2024/01/20 11:50:53;;;;;;;2.58;1.40;;;;;;;;;;6226772;28;24428;-75
2024/01/20 11:53:55;;;;;;;3.40;1.50;;;;;;;;;;6226279;28;24424;-74
2024/01/20 11:56:58;;;;;;;2.33;1.10;;;;;;;;;;6228327;28;24427;-73
2024/01/20 12:00:00;;;;;;;4.00;1.50;;;;;;;;;;6229320;28;24507;-74
2024/01/20 12:03:05;;;;;;;4.60;1.60;;;;;;;;;;6227479;28;24412;-74
2024/01/20 12:06:07;;;;;;;3.30;1.60;;;;;;;;;;6228933;28;24492;-75
2024/01/20 12:09:09;;;;;;;2.85;1.75;;;;;;;;;;6210671;28;24428;-75
2024/01/20 12:12:11;;;;;;;4.32;2.08;;;;;;;;;;6229373;28;24420;-75
2024/01/20 12:15:15;;;;;;;3.13;1.80;;;;;;;;;;6226520;28;24519;-75
2024/01/20 12:18:18;;;;;;;3.17;1.70;;;;;;;;;;6227071;28;24522;-74
2024/01/20 12:21:21;;;;;;;2.73;1.57;;;;;;;;;;6227234;28;25116;-75
2024/01/20 12:24:24;;;;;;;3.78;1.60;;;;;;;;;;6227338;28;24428;-74
2024/01/20 12:27:26;;;;;;;3.15;1.77;;;;;;;;;;6227649;28;24455;-75
2024/01/20 12:30:30;;;;;;;3.38;1.73;;;;;;;;;;6226434;28;24681;-75
2024/01/20 12:33:35;;;;;;;2.10;1.50;;;;;;;;;;6228266;28;24428;-75
2024/01/20 12:36:37;;;;;;;2.80;1.60;;;;;;;;;;6226989;28;24432;-74
2024/01/20 12:39:39;;;;;;;3.67;1.50;;;;;;;;;;6225249;28;24427;-74
2024/01/20 12:42:41;;;;;;;2.75;1.27;;;;;;;;;;6226409;28;24428;-75
2024/01/20 12:45:44;;;;;;;1.80;1.30;;;;;;;;;;6227022;28;24476;-74
2024/01/20 12:48:47;;;;;;;3.22;1.58;;;;;;;;;;6224510;28;24447;-74
2024/01/20 12:51:49;;;;;;;2.35;1.20;;;;;;;;;;6227552;28;24435;-75
2024/01/20 12:54:53;;;;;;;2.72;1.23;;;;;;;;;;6223004;28;24429;-75
2024/01/20 12:57:54;;;;;;;1.97;1.17;;;;;;;;;;6223547;28;24833;-74
2024/01/20 13:00:57;;;;;;;1.87;1.10;;;;;;;;;;6225748;28;24893;-75
2024/01/20 13:04:00;;;;;;;2.10;1.02;;;;;;;;;;6226374;28;24436;-74
2024/01/20 13:07:02;;;;;;;2.13;1.20;;;;;;;;;;6218169;28;24732;-74
2024/01/20 13:10:04;;;;;;;1.70;1.20;;;;;;;;;;6226441;28;24447;-74
2024/01/20 13:13:05;;;;;;;2.47;1.40;;;;;;;;;;6227144;28;24433;-74
2024/01/20 13:16:07;;;;;;;2.40;1.40;;;;;;;;;;6222814;28;24932;-74
2024/01/20 13:19:11;;;;;;;1.92;1.30;;;;;;;;;;6224281;28;24436;-75
2024/01/20 13:22:13;;;;;;;1.88;1.33;;;;;;;;;;6225523;28;24899;-74
2024/01/20 13:25:14;;;;;;;2.03;1.10;;;;;;;;;;6224440;28;24539;-74
2024/01/20 13:28:18;;;;;;;2.25;1.40;;;;;;;;;;6227111;28;24429;-74
2024/01/20 13:31:20;;;;;;;2.45;1.40;;;;;;;;;;6226889;28;24550;-74
2024/01/20 13:34:23;;;;;;;1.80;1.30;;;;;;;;;;6217570;28;24420;-75
2024/01/20 13:37:26;;;;;;;3.30;1.90;;;;;;;;;;6221624;28;24440;-74
2024/01/20 13:40:28;;;;;;;2.92;1.80;;;;;;;;;;6225392;28;24420;-76
2024/01/20 13:43:30;;;;;;;2.90;2.13;;;;;;;;;;6224083;28;24701;-74
2024/01/20 13:46:32;;;;;;;3.47;1.80;;;;;;;;;;6225501;28;24448;-74
2024/01/20 13:49:37;;;;;;;2.60;1.80;;;;;;;;;;6225196;28;24436;-75
2024/01/20 13:52:39;;;;;;;3.03;1.83;;;;;;;;;;6224250;28;24436;-74
2024/01/20 13:55:41;;;;;;;2.93;1.70;;;;;;;;;;6225307;28;24425;-74
2024/01/20 13:58:43;;;;;;;3.30;2.03;;;;;;;;;;6226378;28;24475;-73
2024/01/20 14:01:45;;;;;;;2.17;1.63;;;;;;;;;;6225371;28;24456;-74
2024/01/20 14:04:48;;;;;;;3.10;2.08;;;;;;;;;;6224853;28;24612;-75
2024/01/20 14:07:51;;;;;;;3.50;2.00;;;;;;;;;;6224441;28;24705;-75
2024/01/20 14:10:53;;;;;;;3.65;2.10;;;;;;;;;;6224355;28;24421;-75
2024/01/20 14:13:56;;;;;;;3.53;2.33;;;;;;;;;;6224578;28;24836;-74
2024/01/20 14:17:00;;;;;;;3.33;2.03;;;;;;;;;;6221141;28;24429;-74
2024/01/20 14:20:04;;;;;;;2.80;1.83;;;;;;;;;;6223749;28;24825;-74
2024/01/20 14:23:06;;;;;;;3.33;1.80;;;;;;;;;;6225337;28;24435;-75
2024/01/20 14:26:08;;;;;;;2.70;1.90;;;;;;;;;;6225166;28;24444;-75
2024/01/20 14:29:10;;;;;;;4.28;1.90;;;;;;;;;;6222962;28;24466;-75
2024/01/20 14:32:12;;;;;;;3.50;1.83;;;;;;;;;;6226580;28;24408;-75
2024/01/20 14:35:15;;;;;;;2.85;1.92;;;;;;;;;;6225458;28;24492;-76
2024/01/20 14:38:18;;;;;;;4.10;1.95;;;;;;;;;;6223750;28;24515;-73
2024/01/20 14:41:21;;;;;;;5.20;2.33;;;;;;;;;;6226010;28;24633;-75
2024/01/20 14:44:24;;;;;;;3.17;2.03;;;;;;;;;;6224862;28;24439;-74
2024/01/20 14:47:26;;;;;;;3.58;1.70;;;;;;;;;;6227348;28;24419;-75
2024/01/20 14:50:29;;;;;;;2.58;1.73;;;;;;;;;;6225172;28;24427;-75
2024/01/20 14:53:31;;;;;;;2.42;1.80;;;;;;;;;;6224953;28;24425;-75
2024/01/20 14:56:35;;;;;;;2.90;1.80;;;;;;;;;;6223664;28;24495;-75
2024/01/20 14:59:37;;;;;;;3.28;1.70;;;;;;;;;;6224682;28;24427;-75
2024/01/20 15:02:39;;;;;;;3.80;1.50;;;;;;;;;;6224104;28;24501;-75
2024/01/20 15:05:42;;;;;;;2.22;1.52;;;;;;;;;;6226541;28;24435;-75
2024/01/20 15:08:45;;;;;;;2.83;1.70;;;;;;;;;;6229543;28;24478;-76
2024/01/20 15:11:48;;;;;;;2.78;1.80;;;;;;;;;;6230447;28;24426;-75
2024/01/20 15:14:51;;;;;;;2.38;1.70;;;;;;;;;;6230186;28;24425;-76
2024/01/20 15:17:53;;;;;;;3.57;1.80;;;;;;;;;;6230077;28;24513;-75
2024/01/20 15:20:56;;;;;;;3.20;1.73;;;;;;;;;;6229619;28;24828;-75
2024/01/20 15:23:58;;;;;;;4.10;1.85;;;;;;;;;;6229319;28;24419;-75
2024/01/20 15:27:00;;;;;;;2.70;1.70;;;;;;;;;;6228643;28;24521;-75
2024/01/20 15:30:02;;;;;;;4.27;2.30;;;;;;;;;;6230813;28;24622;-75
2024/01/20 15:33:08;;;;;;;3.13;1.90;;;;;;;;;;6228886;28;24439;-75
2024/01/20 15:36:12;;;;;;;2.88;1.70;;;;;;;;;;6227182;28;24434;-75
2024/01/20 15:39:14;;;;;;;3.07;1.80;;;;;;;;;;6228227;28;24922;-74
2024/01/20 15:42:17;;;;;;;2.72;1.58;;;;;;;;;;6227552;28;24439;-75
2024/01/20 15:45:18;;;;;;;2.83;1.70;;;;;;;;;;6229556;28;24432;-75
2024/01/20 15:48:20;;;;;;;3.67;1.73;;;;;;;;;;6229599;28;24428;-75
2024/01/20 15:51:23;;;;;;;2.65;1.75;;;;;;;;;;6228484;28;24830;-75
2024/01/20 15:54:25;;;;;;;3.00;1.73;;;;;;;;;;6230184;28;24801;-75
2024/01/20 15:57:27;;;;;;;2.38;1.63;;;;;;;;;;6228721;28;24861;-75
2024/01/20 16:00:29;;;;;;;4.97;1.92;;;;;;;;;;6211812;28;24496;-75
2024/01/20 16:03:30;;;;;;;3.95;1.77;;;;;;;;;;6228664;28;24420;-75
2024/01/20 16:06:34;;;;;;;4.20;2.05;;;;;;;;;;6227637;28;24895;-74
2024/01/20 16:09:36;;;;;;;5.10;2.00;;;;;;;;;;6228321;28;24800;-75
2024/01/20 16:12:39;;;;;;;4.15;2.30;;;;;;;;;;6226434;28;24452;-75
2024/01/20 16:15:42;;;;;;;4.32;2.17;;;;;;;;;;6228502;28;24837;-75
2024/01/20 16:18:43;;;;;;;4.07;2.70;;;;;;;;;;6227184;28;24837;-75
2024/01/20 16:21:50;;;;;;;4.75;2.50;;;;;;;;;;6225298;28;24867;-75
2024/01/20 16:24:52;;;;;;;4.75;2.45;;;;;;;;;;6228478;28;25083;-75
2024/01/20 16:27:55;;;;;;;4.30;2.38;;;;;;;;;;6226785;28;24422;-76
2024/01/20 16:30:56;;;;;;;4.20;1.95;;;;;;;;;;6225805;28;24980;-74
2024/01/20 16:33:58;;;;;;;4.75;2.47;;;;;;;;;;6229299;28;24475;-74
2024/01/20 16:37:01;;;;;;;3.90;2.25;;;;;;;;;;6228358;28;24439;-74
2024/01/20 16:40:04;;;;;;;4.03;2.20;;;;;;;;;;6228666;28;24695;-74
2024/01/20 16:43:07;;;;;;;3.03;1.90;;;;;;;;;;6228969;28;24898;-75
2024/01/20 16:46:09;;;;;;;4.40;2.30;;;;;;;;;;6228339;28;24448;-74
2024/01/20 16:49:11;;;;;;;4.95;2.15;;;;;;;;;;6227433;28;24859;-75
2024/01/20 16:52:14;;;;;;;4.13;2.15;;;;;;;;;;6228542;28;24844;-75
2024/01/20 16:55:17;;;;;;;3.92;2.10;;;;;;;;;;6227455;28;24424;-75
2024/01/20 16:58:19;;;;;;;5.47;2.25;;;;;;;;;;6227469;28;24412;-75
2024/01/20 17:01:21;;;;;;;3.90;2.10;;;;;;;;;;6227868;28;24407;-76
2024/01/20 17:04:23;;;;;;;3.63;2.20;;;;;;;;;;6227152;28;24622;-75
2024/01/20 17:07:26;;;;;;;3.93;2.17;;;;;;;;;;6226237;28;24698;-75
2024/01/20 17:10:29;;;;;;;4.97;2.70;;;;;;;;;;6227835;28;24899;-75
2024/01/20 17:13:34;;;;;;;4.37;2.60;;;;;;;;;;6225722;28;24428;-75
2024/01/20 17:16:36;;;;;;;5.32;2.70;;;;;;;;;;6209995;28;24438;-73
2024/01/20 17:19:38;;;;;;;5.93;2.60;;;;;;;;;;6225889;28;24428;-75
2024/01/20 17:22:41;;;;;;;5.43;2.90;;;;;;;;;;6226972;28;24471;-75
2024/01/20 17:25:46;;;;;;;4.47;2.67;;;;;;;;;;6226605;28;24432;-75
2024/01/20 17:28:48;;;;;;;4.87;3.43;;;;;;;;;;6226594;28;24438;-75
2024/01/20 17:31:50;;;;;;;6.22;3.20;;;;;;;;;;6227636;28;24439;-74
2024/01/20 17:34:51;;;;;;;6.97;3.42;;;;;;;;;;6227466;28;24427;-75
2024/01/20 17:37:55;;;;;;;6.30;3.45;;;;;;;;;;6226085;28;24432;-79
2024/01/20 17:41:02;;;;;;;5.32;3.08;;;;;;;;;;6226541;28;24412;-79
2024/01/20 17:44:11;;;;;;;5.22;3.00;;;;;;;;;;6223989;28;24455;-79
2024/01/20 17:47:15;;;;;;;5.50;3.35;;;;;;;;;;6225933;28;24425;-79
2024/01/20 17:50:17;;;;;;;6.07;3.38;;;;;;;;;;6226012;28;24428;-78
2024/01/20 17:53:33;;;;;;;6.28;3.40;;;;;;;;;;6226732;28;24420;-78
2024/01/20 17:56:35;;;;;;;5.60;3.25;;;;;;;;;;6226731;28;24425;-78
2024/01/20 17:59:39;;;;;;;6.65;3.83;;;;;;;;;;6227069;28;24482;-78
2024/01/20 18:02:48;;;;;;;5.63;3.75;;;;;;;;;;6225318;28;24496;-78
2024/01/20 18:05:50;;;;;;;6.35;3.90;;;;;;;;;;6226291;28;24820;-79
2024/01/20 18:09:05;;;;;;;5.97;3.40;;;;;;;;;;6226982;28;24424;-79
2024/01/20 18:12:20;;;;;;;6.30;3.70;;;;;;;;;;6226969;28;24539;-79